Time;durP1;ratioP1;P1;durP2;ratioP2;P2;SDS_P1;SDS_P2;PMS_P1;PMS_P2;Temp;Humidity;BMP_temperature;BMP_pressure;BME280_temperature;BME280_humidity;BME280_pressure;Samples;Min_cycle;Max_cycle;Signal;HPM_P1;HPM_P2
2023/01/05 00:00:41;;;;;;;16.97;13.90;;;8.40;99.90;;;;;;6275149;28;20953;-61
2023/01/05 00:03:45;;;;;;;17.23;14.23;;;8.40;99.90;;;;;;6275070;28;20481;-62
2023/01/05 00:06:48;;;;;;;18.37;14.47;;;8.40;99.90;;;;;;6274423;28;20488;-61
2023/01/05 00:09:52;;;;;;;16.00;14.33;;;8.40;99.90;;;;;;6274978;28;20477;-61
2023/01/05 00:22:58;;;;;;;20.27;14.80;;;8.40;99.90;;;;;;6275959;28;20964;-62
2023/01/05 00:26:02;;;;;;;16.43;13.80;;;8.30;99.90;;;;;;6278095;28;20934;-61
2023/01/05 00:29:06;;;;;;;17.80;14.23;;;8.30;99.90;;;;;;6274263;28;20474;-61
2023/01/05 00:32:09;;;;;;;13.73;11.87;;;8.30;99.90;;;;;;6263624;28;20978;-61
2023/01/05 00:35:14;;;;;;;16.60;14.83;;;8.30;99.90;;;;;;6264277;28;20705;-61
2023/01/05 00:38:17;;;;;;;17.60;14.13;;;8.20;99.90;;;;;;6267940;28;20992;-62
2023/01/05 00:41:21;;;;;;;17.77;15.00;;;8.20;99.90;;;;;;6261891;28;20478;-62
2023/01/05 00:44:25;;;;;;;18.67;13.67;;;8.00;99.90;;;;;;6263449;28;20783;-62
2023/01/05 00:47:28;;;;;;;17.90;14.97;;;8.00;99.90;;;;;;6258597;28;20477;-62
2023/01/05 00:50:31;;;;;;;16.00;14.20;;;8.00;99.90;;;;;;6261103;28;20464;-62
2023/01/05 00:53:35;;;;;;;17.10;14.50;;;8.00;99.90;;;;;;6261951;28;20476;-62
2023/01/05 00:56:39;;;;;;;15.60;13.13;;;8.00;99.90;;;;;;6257791;28;20466;-62
2023/01/05 00:59:43;;;;;;;15.10;13.60;;;8.10;99.90;;;;;;6259561;28;20485;-62
2023/01/05 01:02:46;;;;;;;17.30;12.83;;;8.00;99.90;;;;;;6261367;28;20490;-62
2023/01/05 01:05:57;;;;;;;15.53;12.47;;;8.00;99.90;;;;;;6261787;28;20462;-62
2023/01/05 01:09:00;;;;;;;14.97;12.10;;;8.00;99.90;;;;;;6260618;28;20494;-62
2023/01/05 01:12:05;;;;;;;14.77;12.80;;;8.00;99.90;;;;;;6259425;28;20505;-62
2023/01/05 01:15:10;;;;;;;14.63;13.20;;;7.90;99.90;;;;;;6257943;28;20454;-62
2023/01/05 01:18:13;;;;;;;18.00;14.37;;;8.00;99.90;;;;;;6258968;28;20459;-62
2023/01/05 01:21:16;;;;;;;17.60;13.40;;;7.90;99.90;;;;;;6256659;28;20486;-62
2023/01/05 01:24:22;;;;;;;17.80;13.40;;;7.90;99.90;;;;;;6261342;28;20438;-62
2023/01/05 01:27:26;;;;;;;15.70;14.20;;;7.90;99.90;;;;;;6263444;28;20954;-62
2023/01/05 01:30:29;;;;;;;15.10;12.63;;;8.00;99.90;;;;;;6256346;28;20778;-62
2023/01/05 01:33:33;;;;;;;16.13;13.17;;;7.90;99.90;;;;;;6259811;28;20473;-62
2023/01/05 01:36:36;;;;;;;13.67;11.43;;;7.90;99.90;;;;;;6266156;28;20465;-62
2023/01/05 01:39:40;;;;;;;13.57;12.07;;;7.90;99.90;;;;;;6258625;28;20488;-62
2023/01/05 01:42:45;;;;;;;14.80;13.30;;;7.90;99.90;;;;;;6263220;28;20473;-62
2023/01/05 01:45:48;;;;;;;15.40;13.43;;;7.90;99.90;;;;;;6262318;28;20764;-62
2023/01/05 01:48:54;;;;;;;15.60;12.37;;;7.80;99.90;;;;;;6260717;28;20470;-61
2023/01/05 01:51:58;;;;;;;12.80;11.53;;;7.80;99.90;;;;;;6263342;28;20953;-61
2023/01/05 01:55:03;;;;;;;13.20;11.07;;;7.80;99.90;;;;;;6259242;28;20466;-61
2023/01/05 01:58:13;;;;;;;14.00;12.50;;;7.80;99.90;;;;;;6249809;28;20590;-62
2023/01/05 02:01:16;;;;;;;13.50;10.43;;;7.80;99.90;;;;;;6249433;28;20545;-62
2023/01/05 02:04:20;;;;;;;14.40;11.87;;;7.80;99.90;;;;;;6253214;28;20824;-62
2023/01/05 02:07:26;;;;;;;13.67;12.00;;;7.80;99.90;;;;;;6253311;28;20489;-62
2023/01/05 02:10:42;;;;;;;14.17;12.20;;;7.70;99.90;;;;;;6253302;28;20482;-62
2023/01/05 02:14:04;;;;;;;11.90;10.17;;;7.70;99.90;;;;;;6253154;28;20481;-62
2023/01/05 02:17:18;;;;;;;10.93;9.83;;;7.80;99.90;;;;;;6274044;28;20474;-62
2023/01/05 02:20:46;;;;;;;10.73;9.60;;;7.80;99.90;;;;;;6277889;28;20607;-61
2023/01/05 02:24:28;;;;;;;9.73;8.77;;;7.80;99.90;;;;;;6278061;28;20796;-61
2023/01/05 02:27:45;;;;;;;8.93;8.03;;;7.70;99.90;;;;;;6304373;28;20480;-62
2023/01/05 02:31:08;;;;;;;11.40;8.23;;;7.70;99.90;;;;;;6302949;28;20468;-62
2023/01/05 02:34:22;;;;;;;10.00;8.40;;;7.60;99.90;;;;;;6302172;28;20502;-61
2023/01/05 02:37:32;;;;;;;12.20;9.37;;;7.70;99.90;;;;;;6289883;28;20471;-62
2023/01/05 02:40:40;;;;;;;9.57;8.40;;;7.70;99.90;;;;;;6260452;28;20500;-61
2023/01/05 02:43:45;;;;;;;8.83;7.93;;;7.50;99.90;;;;;;6268688;28;20803;-61
2023/01/05 02:47:01;;;;;;;10.30;8.70;;;7.50;99.90;;;;;;6257344;28;20477;-61
2023/01/05 02:50:09;;;;;;;8.97;8.03;;;7.60;99.90;;;;;;6264361;28;20490;-61
2023/01/05 02:53:18;;;;;;;10.80;8.90;;;7.60;99.90;;;;;;6263472;28;20477;-61
2023/01/05 02:56:24;;;;;;;10.80;9.70;;;7.60;99.90;;;;;;6263626;28;20486;-61
2023/01/05 02:59:31;;;;;;;12.17;9.83;;;7.60;99.90;;;;;;6265682;28;20479;-61
2023/01/05 03:02:36;;;;;;;9.73;8.57;;;7.60;99.90;;;;;;6262415;28;20485;-61
2023/01/05 03:05:45;;;;;;;9.00;8.10;;;7.50;99.90;;;;;;6262928;28;20484;-61
2023/01/05 03:08:51;;;;;;;10.70;9.53;;;7.40;99.90;;;;;;6261581;28;20505;-61
2023/01/05 03:15:25;;;;;;;11.90;10.37;;;7.40;99.90;;;;;;6262442;28;20480;-61
2023/01/05 03:18:31;;;;;;;12.47;9.60;;;7.40;99.90;;;;;;6265944;28;20467;-61
2023/01/05 03:38:36;;;;;;;8.80;8.00;;;7.30;99.90;;;;;;6256596;28;20943;-61
2023/01/05 03:41:39;;;;;;;12.23;8.93;;;7.30;99.90;;;;;;6262985;28;20497;-61
2023/01/05 03:44:45;;;;;;;10.53;8.70;;;7.20;99.90;;;;;;6262003;28;20482;-61
2023/01/05 03:47:49;;;;;;;10.80;9.07;;;7.20;99.90;;;;;;6259121;28;20489;-61
2023/01/05 03:50:54;;;;;;;9.53;8.53;;;7.20;99.90;;;;;;6261089;28;20462;-61
2023/01/05 03:53:57;;;;;;;9.00;7.37;;;7.30;99.90;;;;;;6268984;28;20471;-61
2023/01/05 03:57:01;;;;;;;13.03;8.07;;;7.30;99.90;;;;;;6251137;28;20467;-62
2023/01/05 04:00:05;;;;;;;8.73;7.90;;;7.30;99.90;;;;;;6250939;28;20455;-61
2023/01/05 04:03:10;;;;;;;11.60;8.97;;;7.30;99.90;;;;;;6250441;28;20487;-60
2023/01/05 04:06:15;;;;;;;9.50;8.50;;;7.30;99.90;;;;;;6251171;28;20435;-61
2023/01/05 04:09:18;;;;;;;9.33;7.20;;;7.40;99.90;;;;;;6250704;28;20474;-61
2023/01/05 04:12:22;;;;;;;10.57;9.47;;;7.50;99.90;;;;;;6250810;28;22606;-61
2023/01/05 04:15:25;;;;;;;10.13;9.20;;;7.50;99.90;;;;;;6257312;28;20469;-61
2023/01/05 04:18:28;;;;;;;9.90;8.03;;;7.40;99.90;;;;;;6275263;28;20813;-61
2023/01/05 04:21:33;;;;;;;14.73;10.47;;;7.50;99.90;;;;;;6276662;28;20477;-61
2023/01/05 04:24:36;;;;;;;13.50;10.83;;;7.50;99.90;;;;;;6276838;28;20956;-61
2023/01/05 04:27:39;;;;;;;9.93;8.93;;;7.50;99.90;;;;;;6299777;28;20899;-61
2023/01/05 04:30:44;;;;;;;10.17;8.07;;;7.50;99.90;;;;;;6295314;28;20918;-61
2023/01/05 04:33:47;;;;;;;8.17;7.30;;;7.60;99.90;;;;;;6312141;28;20476;-61
2023/01/05 04:36:51;;;;;;;7.27;6.67;;;7.50;99.90;;;;;;6308002;28;20979;-61
2023/01/05 04:39:55;;;;;;;7.63;6.93;;;7.50;99.90;;;;;;6299772;28;20489;-61
2023/01/05 04:42:58;;;;;;;11.03;7.13;;;7.40;99.90;;;;;;6299840;28;20477;-61
2023/01/05 04:46:01;;;;;;;10.07;6.83;;;7.40;99.90;;;;;;6298772;28;20465;-61
2023/01/05 04:49:04;;;;;;;9.23;7.00;;;7.40;99.90;;;;;;6274227;28;20480;-61
2023/01/05 04:52:09;;;;;;;7.67;6.83;;;7.50;99.90;;;;;;6274480;28;20480;-61
2023/01/05 04:55:12;;;;;;;8.03;7.33;;;7.40;99.90;;;;;;6271718;28;20481;-61
2023/01/05 04:58:16;;;;;;;8.37;7.40;;;7.40;99.90;;;;;;6256410;28;20540;-61
2023/01/05 05:01:19;;;;;;;9.60;7.03;;;7.30;99.90;;;;;;6250195;28;20804;-61
2023/01/05 05:04:22;;;;;;;7.60;7.00;;;7.30;99.90;;;;;;6249605;28;21197;-60
2023/01/05 05:07:27;;;;;;;9.40;7.60;;;7.20;99.90;;;;;;6249565;28;20489;-62
2023/01/05 05:10:30;;;;;;;7.70;6.70;;;7.00;99.90;;;;;;6249666;28;20471;-62
2023/01/05 05:13:33;;;;;;;8.50;7.70;;;6.90;99.90;;;;;;6249863;28;21018;-62
2023/01/05 05:16:36;;;;;;;8.27;7.50;;;6.90;99.90;;;;;;6266519;28;20492;-61
2023/01/05 05:19:40;;;;;;;8.30;6.40;;;6.90;99.90;;;;;;6274139;28;20482;-61
2023/01/05 05:22:45;;;;;;;15.63;9.43;;;6.80;99.90;;;;;;6274444;28;20489;-61
2023/01/05 05:25:51;;;;;;;9.77;8.83;;;6.80;99.90;;;;;;6284588;28;20469;-61
2023/01/05 05:28:54;;;;;;;9.40;8.37;;;6.80;99.90;;;;;;6299427;28;20468;-62
2023/01/05 05:31:57;;;;;;;11.57;10.37;;;6.80;99.90;;;;;;6299282;28;20468;-62
2023/01/05 05:35:00;;;;;;;12.83;10.30;;;6.70;99.90;;;;;;6300635;28;20475;-62
2023/01/05 05:38:05;;;;;;;14.03;11.90;;;6.70;99.90;;;;;;6304107;28;20481;-62
2023/01/05 05:41:08;;;;;;;13.17;11.80;;;6.60;99.90;;;;;;6303675;28;20480;-62
2023/01/05 05:44:11;;;;;;;13.13;11.83;;;6.50;99.90;;;;;;6303580;28;20480;-62
2023/01/05 05:47:14;;;;;;;13.53;12.00;;;6.50;99.90;;;;;;6303152;28;20976;-62
2023/01/05 05:50:18;;;;;;;13.80;11.40;;;6.50;99.90;;;;;;6303276;28;20488;-62
2023/01/05 05:53:22;;;;;;;16.43;12.57;;;6.50;99.90;;;;;;6303332;28;20469;-62
2023/01/05 05:56:25;;;;;;;13.10;11.77;;;6.40;99.90;;;;;;6303523;28;20474;-62
2023/01/05 05:59:29;;;;;;;13.33;11.97;;;6.40;99.90;;;;;;6303151;28;20484;-62
2023/01/05 06:02:32;;;;;;;15.83;13.33;;;6.40;99.90;;;;;;6303338;28;20488;-62
2023/01/05 06:05:35;;;;;;;15.53;13.93;;;6.40;99.90;;;;;;6303265;28;20492;-62
2023/01/05 06:08:40;;;;;;;22.73;20.10;;;6.40;99.90;;;;;;6302737;28;20480;-62
2023/01/05 06:11:43;;;;;;;16.77;15.07;;;6.50;99.90;;;;;;6302820;28;20572;-62
2023/01/05 06:14:46;;;;;;;14.97;12.23;;;6.60;99.90;;;;;;6300944;28;20561;-62
2023/01/05 06:17:50;;;;;;;13.07;10.17;;;6.60;99.90;;;;;;6277527;28;20482;-62
2023/01/05 06:20:54;;;;;;;10.77;9.67;;;6.60;99.90;;;;;;6276933;28;20477;-62
2023/01/05 06:24:05;;;;;;;9.37;8.30;;;6.70;99.90;;;;;;6276044;28;20577;-62
2023/01/05 06:27:09;;;;;;;8.93;7.57;;;6.70;99.90;;;;;;6297585;28;20887;-63
2023/01/05 06:30:13;;;;;;;8.87;7.30;;;6.70;99.90;;;;;;6301224;28;20506;-62
2023/01/05 06:33:17;;;;;;;7.23;6.63;;;6.70;99.90;;;;;;6301384;28;20746;-62
2023/01/05 06:36:20;;;;;;;9.70;8.37;;;6.70;99.90;;;;;;6302848;28;20772;-62
2023/01/05 06:39:24;;;;;;;9.43;7.63;;;6.70;99.90;;;;;;6293399;28;20465;-62
2023/01/05 06:42:27;;;;;;;8.10;7.30;;;6.80;99.90;;;;;;6321692;28;20525;-62
2023/01/05 06:45:31;;;;;;;8.90;8.10;;;6.80;99.90;;;;;;6311184;28;20465;-62
2023/01/05 06:48:34;;;;;;;9.43;7.43;;;6.90;99.90;;;;;;6301281;28;20615;-62
2023/01/05 06:51:39;;;;;;;7.53;6.83;;;6.90;99.90;;;;;;6301733;28;20484;-62
2023/01/05 06:54:43;;;;;;;7.10;6.17;;;6.90;99.90;;;;;;6302246;28;20469;-62
2023/01/05 06:57:47;;;;;;;8.80;7.97;;;6.90;99.90;;;;;;6302143;28;20466;-63
2023/01/05 07:00:50;;;;;;;10.83;7.63;;;6.80;99.90;;;;;;6302443;28;20473;-62
2023/01/05 07:03:53;;;;;;;8.13;7.33;;;6.90;99.90;;;;;;6303379;28;20511;-62
2023/01/05 07:06:57;;;;;;;9.90;7.77;;;7.00;99.90;;;;;;6303036;28;20472;-62
2023/01/05 07:10:02;;;;;;;7.70;7.00;;;7.00;99.90;;;;;;6302379;28;20473;-62
2023/01/05 07:13:05;;;;;;;10.20;7.20;;;7.10;99.90;;;;;;6301919;28;20473;-62
2023/01/05 07:16:08;;;;;;;9.53;7.57;;;7.10;99.90;;;;;;6289022;28;20472;-62
2023/01/05 07:19:11;;;;;;;9.87;8.90;;;7.10;99.90;;;;;;6276481;28;20470;-62
2023/01/05 07:22:15;;;;;;;8.00;7.23;;;7.20;99.90;;;;;;6276227;28;20466;-62
2023/01/05 07:25:19;;;;;;;10.57;7.67;;;7.30;99.90;;;;;;6282352;28;20989;-62
2023/01/05 07:28:22;;;;;;;8.63;7.73;;;7.30;99.90;;;;;;6301348;28;20470;-62
2023/01/05 07:31:26;;;;;;;7.77;6.93;;;7.40;99.90;;;;;;6301230;28;20492;-62
2023/01/05 07:34:29;;;;;;;8.27;7.40;;;7.40;99.90;;;;;;6301373;28;20495;-62
2023/01/05 07:37:32;;;;;;;7.53;6.83;;;7.50;99.90;;;;;;6301129;28;20473;-62
2023/01/05 07:40:37;;;;;;;8.13;7.33;;;7.50;99.90;;;;;;6301533;28;20461;-62
2023/01/05 07:43:40;;;;;;;45.77;32.87;;;7.60;99.90;;;;;;6291382;28;20477;-62
2023/01/05 07:46:43;;;;;;;11.87;10.60;;;7.70;99.90;;;;;;6300651;28;20469;-62
2023/01/05 07:49:46;;;;;;;9.23;8.23;;;7.80;99.90;;;;;;6300702;28;20473;-62
2023/01/05 07:52:50;;;;;;;9.10;8.20;;;7.90;99.90;;;;;;6300351;28;20461;-62
2023/01/05 07:55:59;;;;;;;9.13;7.20;;;8.00;99.90;;;;;;6300760;28;20802;-62
2023/01/05 07:59:02;;;;;;;10.00;9.00;;;8.00;99.90;;;;;;6300518;28;20468;-62
2023/01/05 08:02:05;;;;;;;8.93;8.13;;;8.10;99.90;;;;;;6300537;28;20469;-62
2023/01/05 08:05:09;;;;;;;8.30;7.50;;;8.10;99.90;;;;;;6300514;28;20469;-62
2023/01/05 08:08:13;;;;;;;9.63;8.67;;;8.20;99.90;;;;;;6300541;28;20782;-62
2023/01/05 08:11:25;;;;;;;9.13;7.13;;;8.30;99.90;;;;;;6300802;28;20477;-62
2023/01/05 08:14:28;;;;;;;8.57;7.23;;;8.30;99.90;;;;;;6300433;28;20469;-62
2023/01/05 08:17:31;;;;;;;8.97;7.00;;;8.40;99.90;;;;;;6275989;28;20481;-62
2023/01/05 08:20:35;;;;;;;9.43;8.43;;;8.50;99.90;;;;;;6275111;28;20466;-62
2023/01/05 08:23:39;;;;;;;9.40;8.40;;;8.60;99.90;;;;;;6275357;28;20474;-62
2023/01/05 08:26:43;;;;;;;13.60;8.80;;;8.60;99.90;;;;;;6293199;28;20465;-61
2023/01/05 08:29:46;;;;;;;8.00;7.20;;;8.80;99.90;;;;;;6301258;28;20484;-62
2023/01/05 08:32:49;;;;;;;10.53;8.60;;;9.00;99.90;;;;;;6300989;28;20481;-62
2023/01/05 08:35:53;;;;;;;7.70;7.10;;;9.20;99.90;;;;;;6299747;28;20472;-62
2023/01/05 08:38:56;;;;;;;7.00;6.40;;;9.30;99.90;;;;;;6299817;28;20796;-63
2023/01/05 08:42:01;;;;;;;8.60;7.70;;;9.50;99.90;;;;;;6300032;28;20473;-62
2023/01/05 08:45:06;;;;;;;7.80;7.10;;;9.70;99.90;;;;;;6297243;28;20469;-62
2023/01/05 08:48:09;;;;;;;8.50;7.70;;;9.80;99.90;;;;;;6300985;28;20964;-62
2023/01/05 08:51:12;;;;;;;9.40;7.07;;;10.00;99.90;;;;;;6299648;28;20445;-61
2023/01/05 08:54:15;;;;;;;6.77;6.13;;;10.20;99.90;;;;;;6300059;28;20547;-61
2023/01/05 08:57:20;;;;;;;7.73;7.03;;;10.30;99.90;;;;;;6299903;28;20455;-61
2023/01/05 09:00:23;;;;;;;8.63;7.20;;;10.50;99.90;;;;;;6299834;28;20801;-61
2023/01/05 09:03:26;;;;;;;8.40;7.33;;;10.70;99.90;;;;;;6300478;28;20450;-61
2023/01/05 09:06:30;;;;;;;10.10;9.07;;;10.90;99.90;;;;;;6308217;28;20461;-61
2023/01/05 09:09:33;;;;;;;10.70;8.20;;;11.00;99.90;;;;;;6323989;28;20467;-61
2023/01/05 09:12:38;;;;;;;8.57;7.77;;;11.10;99.90;;;;;;6307053;28;20956;-61
2023/01/05 09:15:42;;;;;;;9.40;8.40;;;11.20;99.90;;;;;;6295503;28;20466;-61
2023/01/05 09:18:46;;;;;;;8.07;7.30;;;11.30;99.90;;;;;;6279956;28;20787;-62
2023/01/05 09:21:49;;;;;;;9.17;8.37;;;11.50;99.90;;;;;;6280146;28;20489;-61
2023/01/05 09:24:52;;;;;;;10.37;8.23;;;11.60;99.90;;;;;;6282486;28;20480;-62
2023/01/05 09:27:57;;;;;;;7.57;6.90;;;11.80;99.90;;;;;;6304694;28;20555;-62
2023/01/05 09:31:05;;;;;;;7.70;6.90;;;12.00;99.90;;;;;;6303860;28;20484;-64
2023/01/05 09:34:09;;;;;;;9.83;6.53;;;12.20;99.90;;;;;;6304616;28;20665;-62
2023/01/05 09:37:12;;;;;;;8.10;7.30;;;12.30;99.90;;;;;;6304048;28;20766;-62
2023/01/05 09:40:15;;;;;;;8.20;7.40;;;12.40;99.90;;;;;;6304338;28;20465;-61
2023/01/05 09:43:25;;;;;;;8.43;7.07;;;12.60;99.90;;;;;;6306325;28;20778;-62
2023/01/05 09:46:33;;;;;;;6.93;6.20;;;12.80;99.90;;;;;;6300885;28;20481;-61
2023/01/05 09:49:39;;;;;;;9.30;7.20;;;12.90;99.90;;;;;;6275698;28;20474;-60
2023/01/05 09:52:42;;;;;;;7.67;6.83;;;13.10;99.90;;;;;;6275727;28;20795;-59
2023/01/05 09:55:48;;;;;;;6.67;6.07;;;13.20;99.80;;;;;;6266070;28;20480;-60
2023/01/05 09:58:57;;;;;;;12.73;9.93;;;13.50;99.60;;;;;;6263740;28;20508;-60
2023/01/05 10:02:04;;;;;;;18.40;9.80;;;13.70;98.60;;;;;;6263420;28;20466;-60
2023/01/05 10:05:11;;;;;;;12.13;9.13;;;13.80;98.50;;;;;;6269927;28;20491;-60
2023/01/05 10:08:18;;;;;;;11.87;8.63;;;13.90;98.20;;;;;;6272703;28;20553;-59
2023/01/05 10:14:56;;;;;;;9.47;7.80;;;14.40;97.20;;;;;;6279867;28;20470;-60
2023/01/05 10:18:00;;;;;;;6.70;5.17;;;14.70;96.60;;;;;;6255173;28;20971;-60
2023/01/05 10:21:12;;;;;;;5.50;4.93;;;14.80;96.00;;;;;;6254255;28;20474;-59
2023/01/05 10:24:29;;;;;;;7.60;6.80;;;14.90;95.20;;;;;;6276834;28;20797;-60
2023/01/05 10:27:39;;;;;;;12.10;7.27;;;15.00;95.00;;;;;;6302764;28;20473;-60
2023/01/05 10:30:54;;;;;;;7.63;6.70;;;15.00;94.60;;;;;;6302824;28;20795;-59
2023/01/05 10:34:03;;;;;;;8.80;7.43;;;15.10;94.90;;;;;;6302643;28;20475;-60
2023/01/05 10:37:34;;;;;;;10.83;8.93;;;15.20;95.10;;;;;;6302955;28;20510;-61
2023/01/05 10:40:52;;;;;;;11.27;10.07;;;15.20;94.70;;;;;;6300963;28;20479;-59
2023/01/05 10:44:19;;;;;;;13.63;11.30;;;15.20;94.70;;;;;;6302414;28;20489;-60
2023/01/05 10:47:27;;;;;;;15.10;12.73;;;15.10;94.80;;;;;;6302266;28;20469;-61
2023/01/05 10:50:38;;;;;;;19.50;13.93;;;14.90;95.60;;;;;;6257549;28;20562;-60
2023/01/05 10:53:43;;;;;;;15.07;13.40;;;14.90;95.70;;;;;;6255096;28;20471;-60
2023/01/05 10:56:47;;;;;;;15.30;13.07;;;14.80;95.70;;;;;;6257386;28;20470;-60
2023/01/05 11:00:00;;;;;;;13.17;11.73;;;14.30;96.50;;;;;;6259276;28;20477;-60
2023/01/05 11:03:07;;;;;;;13.60;12.20;;;14.40;96.70;;;;;;6270616;28;20481;-60
2023/01/05 11:06:20;;;;;;;13.10;11.80;;;14.70;96.40;;;;;;6276582;28;21008;-61
2023/01/05 11:09:25;;;;;;;22.00;11.27;;;14.90;95.50;;;;;;6276771;28;20473;-61
2023/01/05 11:12:28;;;;;;;17.70;12.47;;;15.20;94.90;;;;;;6277551;28;20466;-60
2023/01/05 11:15:34;;;;;;;14.13;12.50;;;15.30;94.70;;;;;;6268766;28;20469;-61
2023/01/05 11:18:47;;;;;;;17.73;12.77;;;15.40;94.60;;;;;;6252133;28;20561;-61
2023/01/05 11:21:51;;;;;;;14.90;12.73;;;16.00;94.60;;;;;;6266954;28;20478;-61
2023/01/05 11:25:18;;;;;;;16.87;13.80;;;18.20;93.50;;;;;;6263554;28;20547;-61
2023/01/05 11:28:21;;;;;;;16.33;14.70;;;22.50;81.00;;;;;;6301548;28;20242;-61
2023/01/05 11:31:27;;;;;;;17.27;15.07;;;23.30;67.60;;;;;;6301596;28;20679;-61
2023/01/05 11:34:37;;;;;;;16.17;14.70;;;22.20;63.90;;;;;;6301279;28;20671;-61
2023/01/05 11:37:45;;;;;;;13.40;12.00;;;21.30;65.70;;;;;;6301184;28;20243;-61
2023/01/05 11:40:48;;;;;;;17.13;11.53;;;22.00;64.10;;;;;;6301051;28;20231;-60
2023/01/05 11:43:53;;;;;;;14.20;11.80;;;25.10;58.40;;;;;;6300803;28;20261;-60
2023/01/05 11:46:56;;;;;;;13.67;12.30;;;28.20;47.30;;;;;;6300496;28;20234;-61
2023/01/05 11:50:05;;;;;;;12.43;11.23;;;27.80;42.50;;;;;;6285750;28;20223;-61
2023/01/05 11:53:25;;;;;;;12.63;11.30;;;25.10;44.20;;;;;;6275663;28;20254;-61
2023/01/05 11:56:28;;;;;;;13.53;11.73;;;22.60;48.60;;;;;;6275719;28;20267;-61
2023/01/05 11:59:31;;;;;;;11.70;10.20;;;21.30;51.00;;;;;;6275202;28;20717;-60
2023/01/05 12:03:02;;;;;;;10.27;9.27;;;19.10;55.60;;;;;;6275685;28;20235;-60
2023/01/05 12:06:20;;;;;;;10.93;8.87;;;17.50;59.20;;;;;;6250808;28;20379;-60
2023/01/05 12:09:28;;;;;;;10.47;9.37;;;16.90;61.90;;;;;;6250231;28;20939;-60
2023/01/05 12:12:48;;;;;;;11.27;9.47;;;16.30;65.00;;;;;;6251143;28;20474;-60
2023/01/05 12:16:07;;;;;;;11.70;10.50;;;15.90;67.90;;;;;;6261278;28;20805;-61
2023/01/05 12:19:28;;;;;;;13.00;11.30;;;15.20;72.00;;;;;;6277294;28;20553;-60
2023/01/05 12:23:01;;;;;;;10.67;9.57;;;14.80;75.60;;;;;;6270279;28;20477;-61
2023/01/05 12:26:16;;;;;;;9.47;8.53;;;14.70;77.60;;;;;;6274782;28;20530;-61
2023/01/05 12:29:58;;;;;;;11.77;9.40;;;14.60;79.40;;;;;;6299990;28;20478;-61
2023/01/05 12:33:53;;;;;;;10.60;9.50;;;14.60;81.10;;;;;;6295073;28;20902;-61
2023/01/05 12:37:24;;;;;;;11.33;10.23;;;14.90;82.00;;;;;;6269886;28;20477;-61
2023/01/05 12:40:43;;;;;;;12.20;9.90;;;15.00;82.80;;;;;;6274922;28;20471;-61
2023/01/05 12:44:01;;;;;;;15.53;10.80;;;15.00;83.10;;;;;;6274542;28;20788;-61
2023/01/05 12:47:22;;;;;;;15.07;11.10;;;14.90;83.20;;;;;;6274299;28;20528;-61
2023/01/05 12:50:32;;;;;;;13.73;10.60;;;14.80;84.00;;;;;;6274830;28;20946;-59
2023/01/05 12:53:47;;;;;;;12.57;10.30;;;14.70;85.00;;;;;;6274233;28;20481;-59
2023/01/05 12:56:55;;;;;;;13.70;11.20;;;14.60;85.70;;;;;;6274443;28;20485;-59
2023/01/05 13:00:03;;;;;;;15.23;11.70;;;14.50;86.10;;;;;;6274374;28;20479;-58
2023/01/05 13:03:15;;;;;;;23.83;11.83;;;14.40;86.90;;;;;;6274422;28;20551;-58
2023/01/05 13:06:22;;;;;;;15.63;11.23;;;14.40;87.60;;;;;;6274156;28;20477;-58
2023/01/05 13:09:30;;;;;;;12.90;11.60;;;14.30;88.30;;;;;;6274582;28;20469;-58
2023/01/05 13:12:37;;;;;;;12.20;10.57;;;14.30;89.10;;;;;;6274416;28;20475;-59
2023/01/05 13:15:45;;;;;;;13.90;11.80;;;14.30;89.50;;;;;;6273952;28;20466;-59
2023/01/05 13:18:53;;;;;;;13.83;12.20;;;14.30;90.00;;;;;;6274421;28;20472;-58
2023/01/05 13:21:58;;;;;;;15.13;10.43;;;14.30;90.20;;;;;;6274396;28;20465;-58
2023/01/05 13:25:06;;;;;;;12.90;10.57;;;14.20;90.50;;;;;;6256874;28;20479;-58
2023/01/05 13:28:19;;;;;;;11.80;9.73;;;14.20;90.90;;;;;;6298732;28;20477;-58
2023/01/05 13:31:48;;;;;;;22.43;11.37;;;14.20;91.10;;;;;;6299213;28;20473;-58
2023/01/05 13:35:22;;;;;;;14.13;10.80;;;14.20;91.40;;;;;;6301074;28;20810;-59
2023/01/05 13:39:02;;;;;;;13.80;12.13;;;14.10;91.40;;;;;;6288107;28;20465;-59
2023/01/05 13:42:34;;;;;;;17.83;11.60;;;14.00;91.80;;;;;;6299111;28;20780;-59
2023/01/05 13:46:14;;;;;;;12.93;10.97;;;14.00;92.70;;;;;;6267301;28;20755;-60
2023/01/05 13:49:45;;;;;;;16.53;11.90;;;13.90;92.60;;;;;;6265516;28;20459;-59
2023/01/05 13:53:02;;;;;;;16.80;11.17;;;13.80;92.80;;;;;;6259652;28;20477;-58
2023/01/05 13:56:11;;;;;;;12.07;10.77;;;13.80;92.90;;;;;;6256632;28;20780;-59
2023/01/05 13:59:24;;;;;;;22.10;10.57;;;13.70;93.10;;;;;;6273328;28;20789;-58
2023/01/05 14:02:46;;;;;;;12.00;9.57;;;13.70;93.40;;;;;;6267960;28;20469;-59
2023/01/05 14:05:53;;;;;;;13.47;9.00;;;13.70;94.00;;;;;;6277714;28;20481;-59
2023/01/05 14:09:00;;;;;;;11.33;9.13;;;13.70;94.60;;;;;;6262936;28;20821;-60
2023/01/05 14:12:42;;;;;;;12.80;8.70;;;13.60;95.20;;;;;;6253665;28;20478;-59
2023/01/05 14:15:46;;;;;;;8.73;5.23;;;13.60;95.30;;;;;;6255694;28;20458;-59
2023/01/05 14:18:52;;;;;;;5.07;3.30;;;13.70;94.30;;;;;;6252600;28;20485;-60
2023/01/05 14:22:05;;;;;;;5.60;3.57;;;13.80;91.60;;;;;;6251937;28;20463;-60
2023/01/05 14:25:45;;;;;;;5.90;3.33;;;13.90;91.00;;;;;;6261060;28;20473;-60
2023/01/05 14:28:48;;;;;;;3.20;2.70;;;14.00;90.70;;;;;;6301352;28;20555;-60
2023/01/05 14:31:52;;;;;;;3.13;2.07;;;14.10;90.70;;;;;;6300971;28;20948;-60
2023/01/05 14:35:02;;;;;;;2.20;1.03;;;14.10;90.80;;;;;;6301975;28;20461;-60
2023/01/05 14:38:13;;;;;;;0.83;0.67;;;14.20;90.80;;;;;;6302129;28;20964;-60
2023/01/05 14:41:22;;;;;;;1.20;1.10;;;14.20;91.00;;;;;;6302415;28;20828;-60
2023/01/05 14:44:33;;;;;;;2.20;0.70;;;14.20;91.40;;;;;;6302318;28;20461;-59
2023/01/05 14:47:40;;;;;;;4.40;0.70;;;14.20;91.70;;;;;;6302722;28;20477;-60
2023/01/05 14:50:45;;;;;;;1.00;0.50;;;14.20;92.00;;;;;;6284176;28;20484;-60
2023/01/05 14:53:50;;;;;;;1.10;0.63;;;14.20;92.10;;;;;;6277565;28;20787;-60
2023/01/05 14:57:23;;;;;;;0.80;0.70;;;14.20;92.30;;;;;;6276829;28;20470;-59
2023/01/05 15:00:40;;;;;;;2.03;0.80;;;14.10;92.40;;;;;;6264814;28;20462;-60
2023/01/05 15:03:50;;;;;;;1.30;0.80;;;14.10;92.50;;;;;;6277143;28;20954;-59
2023/01/05 15:07:18;;;;;;;0.63;0.60;;;14.00;92.70;;;;;;6277160;28;20486;-60
2023/01/05 15:10:48;;;;;;;1.67;0.67;;;14.00;92.80;;;;;;6271485;28;20474;-60
2023/01/05 15:17:48;;;;;;;1.70;1.10;;;13.90;93.00;;;;;;6277307;28;20458;-60
2023/01/05 15:21:15;;;;;;;1.37;0.90;;;13.90;93.00;;;;;;6277331;28;20466;-60
2023/01/05 15:24:42;;;;;;;1.17;0.60;;;13.90;93.10;;;;;;6257562;28;20444;-59
2023/01/05 15:28:05;;;;;;;1.00;0.73;;;13.90;93.10;;;;;;6252018;28;20494;-60
2023/01/05 15:31:35;;;;;;;2.47;0.80;;;13.80;93.10;;;;;;6252502;28;20490;-60
2023/01/05 15:34:44;;;;;;;1.80;0.60;;;13.80;93.10;;;;;;6251709;28;20974;-59
2023/01/05 15:37:50;;;;;;;2.30;0.70;;;13.80;93.20;;;;;;6251126;28;20471;-60
2023/01/05 15:41:01;;;;;;;2.93;0.90;;;13.80;93.20;;;;;;6251303;28;20467;-60
2023/01/05 15:44:05;;;;;;;2.40;0.97;;;13.80;93.20;;;;;;6251304;28;20475;-60
2023/01/05 15:47:11;;;;;;;2.33;1.13;;;13.70;93.30;;;;;;6251188;28;20481;-61
2023/01/05 15:50:19;;;;;;;1.43;1.20;;;13.80;93.30;;;;;;6267805;28;20473;-61
2023/01/05 15:53:25;;;;;;;3.47;1.30;;;13.70;93.30;;;;;;6276463;28;20825;-61
2023/01/05 15:56:34;;;;;;;2.10;1.40;;;13.70;93.30;;;;;;6276188;28;20784;-59
2023/01/05 15:59:40;;;;;;;1.67;1.50;;;13.70;93.40;;;;;;6275778;28;20515;-59
2023/01/05 16:02:43;;;;;;;2.10;1.90;;;13.60;93.40;;;;;;6275678;28;20477;-59
2023/01/05 16:05:46;;;;;;;2.10;1.87;;;13.60;93.50;;;;;;6275347;28;20796;-59
2023/01/05 16:08:51;;;;;;;2.90;2.60;;;13.60;93.60;;;;;;6275337;28;20481;-59
2023/01/05 16:11:59;;;;;;;14.87;6.47;;;13.50;93.70;;;;;;6275363;28;20485;-59
2023/01/05 16:15:05;;;;;;;14.23;11.40;;;13.50;93.90;;;;;;6268515;28;20789;-59
2023/01/05 16:18:15;;;;;;;11.90;7.10;;;13.50;94.10;;;;;;6276963;28;20450;-59
2023/01/05 16:21:24;;;;;;;9.20;3.50;;;13.50;94.10;;;;;;6275081;28;20526;-60
2023/01/05 16:24:32;;;;;;;6.50;5.00;;;13.50;94.30;;;;;;6254762;28;20855;-59
2023/01/05 16:27:40;;;;;;;10.77;7.60;;;13.40;94.20;;;;;;6250424;28;20488;-60
2023/01/05 16:30:44;;;;;;;9.30;5.43;;;13.40;94.30;;;;;;6250060;28;20942;-60
2023/01/05 16:34:02;;;;;;;6.90;5.30;;;13.40;94.50;;;;;;6250227;28;20503;-60
2023/01/05 16:37:08;;;;;;;6.10;4.00;;;13.30;94.60;;;;;;6250404;28;20486;-61
2023/01/05 16:40:20;;;;;;;6.30;4.17;;;13.30;94.70;;;;;;6249844;28;20467;-61
2023/01/05 16:43:33;;;;;;;4.80;3.80;;;13.30;94.90;;;;;;6273119;28;20477;-60
2023/01/05 16:46:39;;;;;;;4.33;4.03;;;13.30;95.00;;;;;;6275034;28;20489;-60
2023/01/05 16:49:42;;;;;;;4.90;4.23;;;13.30;95.10;;;;;;6269662;28;20978;-60
2023/01/05 16:53:05;;;;;;;7.57;5.60;;;13.20;95.20;;;;;;6269535;28;20475;-60